Main page
METAR-TAF:

METAR-TAF

Airports :

Cazaux Air Base

Cazaux, France

latitude: 44-32N, longitude: 001-08W, elevation: 25 m

Current weather observation

The report was made 32 minutes ago, at 22:00 UTC
Wind 2 kt from the Southeast
Temperature 9°C
Humidity 87%
Pressure 1016 hPa
Visibility 10 km or more
Few clouds at a height of 4500 ft

METAR: LFBC 052200Z AUTO 13002KT 9999 FEW045 09/07 Q1016

Time: 00:32 (22:32 UTC)

Forecast

The report was made 8 hours and 32 minutes ago, at 14:00 UTC
Forecast valid from 05 at 15 UTC to 06 at 15 UTC
Wind 8 kt from the West
Visibility 10 km or more
Broken clouds at a height of 3500 ft
Probability 40% :
Temporary
from 06 at 02 UTC to 06 at 06 UTC
Broken clouds at a height of 800 ft
Temporary
from 06 at 11 UTC to 06 at 15 UTC
Visibility: 4000 m
Broken clouds at a height of 1400 ft
rain

TAF: LFBC 051400Z 0515/0615 26008KT 9999 BKN035 PROB40 TEMPO 0602/0606 BKN008 TEMPO 0611/0615 4000 RA BKN014

Weather observations and forecasts of more than 4000 airports (METAR and TAF reports).

The available stations are represented by yellow and red dots on the map.

Hover mouse over dot to see the name of the station.

Then click to see weather observations and forecasts.

To change the map : click on the green buttons with a black cross to zoom in, on the green button with a dash to zoom out, or on the green arrows for adjacent maps.


METAR-TAF: